Dolce Far Niente — CFK9784 — position and weather

sailwx.info

Track history (hours):
 
Tides and Currents Weather Stations Pressure Air Temp Water Temp Dewpoint Dewpoint Depression Visibility Wind Speed Wind Dir Waves Ship Positions

Dolce Far Niente

Last reported at 2015-Jul-02 20:15 UTC. Time now 2015-Jul-05 06:07 UTC.
Position N 49°48' W 124°32'.

Type: Pleasure craft. MMSI: 316020002.

Date/timePositionNaut miles runAvg speedWind from/ knotsBaromVisibWave heightAir tempDewpointWater temp
2015-Jul-02 20:15N 49°48' W 124°32'1014.2
2015-Jul-02 19:32N 49°42' W 124°19'1211.6
2015-Jul-02 18:32N 49°38' W 124°02'0 0.0
2015-Jul-02 17:32N 49°38' W 124°02'0 0.0
2015-Jul-02 16:32N 49°38' W 124°02'0 0.0
2015-Jul-02 15:32N 49°38' W 124°02'0 0.0
2015-Jul-02 14:29N 49°38' W 124°02'0 0.0
2015-Jul-02 13:32N 49°38' W 124°02'0 0.0
2015-Jul-02 12:29N 49°38' W 124°02'0 0.0
2015-Jul-02 11:32N 49°38' W 124°02'0 0.0
2015-Jul-02 10:23N 49°38' W 124°02'0 0.0
2015-Jul-02 09:32N 49°38' W 124°02'0 0.0
2015-Jul-02 08:32N 49°38' W 124°02'0 0.0
2015-Jul-02 07:32N 49°38' W 124°02'0 0.0
2015-Jul-02 06:32N 49°38' W 124°02'0 0.0
2015-Jul-02 05:32N 49°38' W 124°02'0 0.0
2015-Jul-02 04:32N 49°38' W 124°02'0 0.0
2015-Jul-02 03:32N 49°38' W 124°02'0 0.0
2015-Jul-02 02:32N 49°38' W 124°02'0 0.0
2015-Jul-02 01:32N 49°38' W 124°02'0 0.0
2015-Jul-02 00:32N 49°38' W 124°02'0 0.0
2015-Jul-01 23:32N 49°38' W 124°02'0 0.0
2015-Jul-01 22:29N 49°38' W 124°02'0 0.0
2015-Jul-01 21:32N 49°38' W 124°02'9 9.3
2015-Jul-01 20:33N 49°30' W 123°57'1616.2
2015-Jul-01 19:33N 49°13' W 123°56'3 3.0
2015-Jul-01 18:29N 49°10' W 123°56'0 0.0
2015-Jul-01 17:29N 49°10' W 123°56'0 0.0
2015-Jul-01 16:29N 49°10' W 123°56'0 0.0
2015-Jul-01 15:29N 49°10' W 123°56'0 0.0
2015-Jul-01 10:26N 49°10' W 123°56'0 0.0
2015-Jul-01 09:32N 49°10' W 123°56'0 0.0
2015-Jul-01 08:26N 49°10' W 123°56'0 0.0
2015-Jul-01 07:32N 49°10' W 123°56'0 0.0
2015-Jul-01 06:32N 49°10' W 123°56'0 0.0
2015-Jul-01 05:29N 49°10' W 123°56'0 0.0
2015-Jul-01 04:29N 49°10' W 123°56'0 0.0
2015-Jul-01 03:23N 49°10' W 123°56'0 0.0
2015-Jul-01 00:33N 49°10' W 123°56'5614.0
2015-Jun-30 20:33N 48°29' W 122°57'  
2015-Jun-25 17:32N 49°48' W 124°32'1818.3
2015-Jun-25 16:33N 49°39' W 124°08'4 3.9
2015-Jun-25 15:33N 49°38' W 124°02'0 0.0
2015-Jun-25 14:33N 49°38' W 124°02'0 0.0
2015-Jun-25 13:33N 49°38' W 124°02'0 0.0
2015-Jun-25 12:33N 49°38' W 124°02'0 0.0
2015-Jun-25 11:33N 49°38' W 124°02'0 0.0
2015-Jun-25 10:33N 49°38' W 124°02'0 0.0
2015-Jun-25 09:33N 49°38' W 124°02'0 0.0
2015-Jun-25 08:33N 49°38' W 124°02'0 0.0
2015-Jun-25 07:33N 49°38' W 124°02'0 0.0
2015-Jun-25 06:33N 49°38' W 124°02'0 0.0
2015-Jun-25 05:33N 49°38' W 124°02'0 0.0
2015-Jun-25 04:30N 49°38' W 124°02'0 0.0
2015-Jun-25 03:33N 49°38' W 124°02'0 0.0
2015-Jun-25 02:33N 49°38' W 124°02'0 0.0
2015-Jun-25 01:33N 49°38' W 124°02'0 0.0
2015-Jun-25 00:33N 49°38' W 124°02'0 0.0
2015-Jun-24 23:33N 49°38' W 124°02'0 0.0
2015-Jun-24 22:33N 49°38' W 124°02'0 0.0
2015-Jun-24 21:28N 49°38' W 124°02'0 0.0
2015-Jun-24 20:31N 49°38' W 124°02'1111.3
2015-Jun-24 19:33N 49°28' W 124°08'1616.2
2015-Jun-24 18:33N 49°14' W 123°55'2116.9
2015-Jun-24 17:18N 48°55' W 123°40'1316.8
2015-Jun-24 16:31N 48°43' W 123°31'6 0.4
2015-Jun-24 02:23N 48°40' W 123°24'0 0.0
2015-Jun-24 01:28N 48°40' W 123°24'  
Track history (hours):
 
Tides and Currents Weather Stations Pressure Air Temp Water Temp Dewpoint Dewpoint Depression Visibility Wind Speed Wind Dir Waves Ship Positions

Dolce Far Niente

Last reported at 2015-Jul-02 20:15 UTC. Time now 2015-Jul-05 06:07 UTC.
Position N 49°48' W 124°32'.

Type: Pleasure craft. MMSI: 316020002.

Date/timePositionNaut miles runAvg speedWind from/ knotsBaromVisibWave heightAir tempDewpointWater temp
2015-Jul-02 20:15N 49°48' W 124°32'1014.2
2015-Jul-02 19:32N 49°42' W 124°19'1211.6
2015-Jul-02 18:32N 49°38' W 124°02'0 0.0
2015-Jul-02 17:32N 49°38' W 124°02'0 0.0
2015-Jul-02 16:32N 49°38' W 124°02'0 0.0
2015-Jul-02 15:32N 49°38' W 124°02'0 0.0
2015-Jul-02 14:29N 49°38' W 124°02'0 0.0
2015-Jul-02 13:32N 49°38' W 124°02'0 0.0
2015-Jul-02 12:29N 49°38' W 124°02'0 0.0
2015-Jul-02 11:32N 49°38' W 124°02'0 0.0
2015-Jul-02 10:23N 49°38' W 124°02'0 0.0
2015-Jul-02 09:32N 49°38' W 124°02'0 0.0
2015-Jul-02 08:32N 49°38' W 124°02'0 0.0
2015-Jul-02 07:32N 49°38' W 124°02'0 0.0
2015-Jul-02 06:32N 49°38' W 124°02'0 0.0
2015-Jul-02 05:32N 49°38' W 124°02'0 0.0
2015-Jul-02 04:32N 49°38' W 124°02'0 0.0
2015-Jul-02 03:32N 49°38' W 124°02'0 0.0
2015-Jul-02 02:32N 49°38' W 124°02'0 0.0
2015-Jul-02 01:32N 49°38' W 124°02'0 0.0
2015-Jul-02 00:32N 49°38' W 124°02'0 0.0
2015-Jul-01 23:32N 49°38' W 124°02'0 0.0
2015-Jul-01 22:29N 49°38' W 124°02'0 0.0
2015-Jul-01 21:32N 49°38' W 124°02'9 9.3
2015-Jul-01 20:33N 49°30' W 123°57'1616.2
2015-Jul-01 19:33N 49°13' W 123°56'3 3.0
2015-Jul-01 18:29N 49°10' W 123°56'0 0.0
2015-Jul-01 17:29N 49°10' W 123°56'0 0.0
2015-Jul-01 16:29N 49°10' W 123°56'0 0.0
2015-Jul-01 15:29N 49°10' W 123°56'0 0.0
2015-Jul-01 10:26N 49°10' W 123°56'0 0.0
2015-Jul-01 09:32N 49°10' W 123°56'0 0.0
2015-Jul-01 08:26N 49°10' W 123°56'0 0.0
2015-Jul-01 07:32N 49°10' W 123°56'0 0.0
2015-Jul-01 06:32N 49°10' W 123°56'0 0.0
2015-Jul-01 05:29N 49°10' W 123°56'0 0.0
2015-Jul-01 04:29N 49°10' W 123°56'0 0.0
2015-Jul-01 03:23N 49°10' W 123°56'0 0.0
2015-Jul-01 00:33N 49°10' W 123°56'5614.0
2015-Jun-30 20:33N 48°29' W 122°57'  
2015-Jun-25 17:32N 49°48' W 124°32'1818.3
2015-Jun-25 16:33N 49°39' W 124°08'4 3.9
2015-Jun-25 15:33N 49°38' W 124°02'0 0.0
2015-Jun-25 14:33N 49°38' W 124°02'0 0.0
2015-Jun-25 13:33N 49°38' W 124°02'0 0.0
2015-Jun-25 12:33N 49°38' W 124°02'0 0.0
2015-Jun-25 11:33N 49°38' W 124°02'0 0.0
2015-Jun-25 10:33N 49°38' W 124°02'0 0.0
2015-Jun-25 09:33N 49°38' W 124°02'0 0.0
2015-Jun-25 08:33N 49°38' W 124°02'0 0.0
2015-Jun-25 07:33N 49°38' W 124°02'0 0.0
2015-Jun-25 06:33N 49°38' W 124°02'0 0.0
2015-Jun-25 05:33N 49°38' W 124°02'0 0.0
2015-Jun-25 04:30N 49°38' W 124°02'0 0.0
2015-Jun-25 03:33N 49°38' W 124°02'0 0.0
2015-Jun-25 02:33N 49°38' W 124°02'0 0.0
2015-Jun-25 01:33N 49°38' W 124°02'0 0.0
2015-Jun-25 00:33N 49°38' W 124°02'0 0.0
2015-Jun-24 23:33N 49°38' W 124°02'0 0.0
2015-Jun-24 22:33N 49°38' W 124°02'0 0.0
2015-Jun-24 21:28N 49°38' W 124°02'0 0.0
2015-Jun-24 20:31N 49°38' W 124°02'1111.3
2015-Jun-24 19:33N 49°28' W 124°08'1616.2
2015-Jun-24 18:33N 49°14' W 123°55'2116.9
2015-Jun-24 17:18N 48°55' W 123°40'1316.8
2015-Jun-24 16:31N 48°43' W 123°31'6 0.4
2015-Jun-24 02:23N 48°40' W 123°24'0 0.0
2015-Jun-24 01:28N 48°40' W 123°24'  

Dump ship's entire track history